Time;durP1;ratioP1;P1;durP2;ratioP2;P2;SDS_P1;SDS_P2;PMS_P1;PMS_P2;Temp;Humidity;BMP_temperature;BMP_pressure;BME280_temperature;BME280_humidity;BME280_pressure;Samples;Min_cycle;Max_cycle;Signal;HPM_P1;HPM_P2
2021/12/19 00:08:45;;;;;;;9.43;4.30;;;;;;;4.38;100.00;100042.19;4141962;28;20133;-71
2021/12/19 00:10:45;;;;;;;6.80;3.92;;;;;;;4.33;100.00;100049.72;4139083;28;20282;-71
2021/12/19 00:12:46;;;;;;;5.63;3.28;;;;;;;4.28;100.00;100036.91;4138685;28;20088;-71
2021/12/19 00:14:46;;;;;;;5.95;3.92;;;;;;;4.25;100.00;100034.75;4138045;28;20053;-71
2021/12/19 00:16:47;;;;;;;7.88;3.65;;;;;;;4.28;100.00;100042.38;4135794;28;20423;-71
2021/12/19 00:18:48;;;;;;;6.25;3.85;;;;;;;4.28;100.00;100036.91;4135731;28;20053;-71
2021/12/19 00:20:49;;;;;;;8.52;4.40;;;;;;;4.25;100.00;100032.03;4139069;28;20107;-71
2021/12/19 00:22:50;;;;;;;8.77;3.78;;;;;;;4.27;100.00;100034.47;4137474;28;20061;-71
2021/12/19 00:24:50;;;;;;;9.57;4.90;;;;;;;4.38;100.00;100036.72;4138346;28;20045;-71
2021/12/19 00:26:51;;;;;;;6.80;4.32;;;;;;;4.33;100.00;100025.06;4137624;28;20205;-71
2021/12/19 00:28:51;;;;;;;7.35;4.55;;;;;;;4.39;99.91;100023.88;4138289;28;20128;-71
2021/12/19 00:30:52;;;;;;;8.02;4.68;;;;;;;4.33;100.00;100016.84;4137164;28;20045;-71
2021/12/19 00:32:52;;;;;;;7.60;3.85;;;;;;;4.31;100.00;100025.34;4137710;28;20407;-71
2021/12/19 00:34:52;;;;;;;7.25;4.28;;;;;;;4.33;99.85;100008.59;4139302;28;20133;-71
2021/12/19 00:36:53;;;;;;;11.82;5.80;;;;;;;4.33;100.00;100022.31;4135991;28;20056;-71
2021/12/19 00:38:53;;;;;;;9.05;4.53;;;;;;;4.27;100.00;100001.56;4137384;28;20129;-71
2021/12/19 00:40:54;;;;;;;7.60;4.78;;;;;;;4.26;100.00;100013.66;4138812;28;20057;-71
2021/12/19 00:43:23;;;;;;;7.45;4.38;;;;;;;4.27;99.98;100002.38;4137079;28;20038;-71
2021/12/19 00:45:31;;;;;;;7.60;4.40;;;;;;;4.28;100.00;100008.69;4135089;28;20081;-71
2021/12/19 00:47:31;;;;;;;7.50;4.13;;;;;;;4.34;100.00;100019.25;4137513;28;20446;-71
2021/12/19 00:49:31;;;;;;;8.27;4.05;;;;;;;4.32;99.77;100009.72;4137778;28;20041;-71
2021/12/19 00:51:32;;;;;;;8.15;4.07;;;;;;;4.43;98.43;100020.22;4137820;28;20057;-71
2021/12/19 00:53:33;;;;;;;9.15;4.22;;;;;;;4.35;99.65;100018.16;4137558;28;20046;-71
2021/12/19 00:55:33;;;;;;;7.22;4.50;;;;;;;4.31;99.44;100002.63;4137287;28;20056;-71
2021/12/19 00:57:33;;;;;;;8.52;4.43;;;;;;;4.32;99.76;100007.81;4137577;28;20050;-71
2021/12/19 00:59:34;;;;;;;7.53;3.67;;;;;;;4.33;100.00;99989.44;4137676;28;20438;-71
2021/12/19 01:01:36;;;;;;;8.18;3.80;;;;;;;4.28;100.00;99998.53;4137725;28;20509;-71
2021/12/19 01:03:37;;;;;;;7.88;4.50;;;;;;;4.31;99.86;99995.22;4136497;28;20482;-71
2021/12/19 01:05:41;;;;;;;8.25;4.20;;;;;;;4.26;100.00;100000.78;4135824;28;20153;-71
2021/12/19 01:07:41;;;;;;;10.73;4.07;;;;;;;4.23;100.00;100010.41;4136484;28;20041;-71
2021/12/19 01:09:42;;;;;;;7.35;4.25;;;;;;;4.22;100.00;100007.97;4137655;28;20092;-71
2021/12/19 01:11:47;;;;;;;7.38;3.92;;;;;;;4.20;100.00;100007.44;4136269;28;20104;-71
2021/12/19 01:13:48;;;;;;;10.60;4.85;;;;;;;4.22;100.00;99988.78;4136383;28;20038;-71
2021/12/19 01:15:50;;;;;;;7.47;4.22;;;;;;;4.19;100.00;99981.16;4137644;28;20503;-71
2021/12/19 01:17:51;;;;;;;9.60;4.40;;;;;;;4.22;100.00;99983.31;4137071;28;20050;-71
2021/12/19 01:19:51;;;;;;;7.47;4.68;;;;;;;4.36;99.54;99975.94;4136087;28;20069;-71
2021/12/19 01:21:52;;;;;;;7.70;4.20;;;;;;;4.35;98.60;99976.22;4137571;28;20350;-71
2021/12/19 01:23:52;;;;;;;8.30;5.13;;;;;;;4.29;98.95;99980.16;4136387;28;20058;-71
2021/12/19 01:25:52;;;;;;;7.07;4.30;;;;;;;4.22;99.84;99981.38;4134853;28;20462;-71
2021/12/19 01:27:53;;;;;;;8.85;4.65;;;;;;;4.19;99.37;99975.69;4134571;28;20125;-71
2021/12/19 01:29:53;;;;;;;7.82;4.55;;;;;;;4.20;99.80;99977.28;4135683;28;20089;-71
2021/12/19 01:31:54;;;;;;;6.43;3.97;;;;;;;4.27;98.71;99975.00;4134868;28;20054;-71
2021/12/19 01:33:54;;;;;;;10.55;4.63;;;;;;;4.30;98.38;99970.84;4136984;28;20038;-71
2021/12/19 01:35:55;;;;;;;8.68;4.10;;;;;;;4.30;98.14;99979.88;4136735;28;20046;-71
2021/12/19 01:37:55;;;;;;;8.68;4.60;;;;;;;4.23;98.86;99980.28;4136002;28;20050;-71
2021/12/19 01:39:56;;;;;;;8.40;4.57;;;;;;;4.22;99.20;99980.56;4137001;28;20256;-71
2021/12/19 01:41:58;;;;;;;7.20;4.35;;;;;;;4.22;98.55;99978.66;4136461;28;20050;-71
2021/12/19 01:43:58;;;;;;;11.25;4.80;;;;;;;4.23;98.50;99982.19;4137235;28;20115;-71
2021/12/19 01:45:59;;;;;;;10.20;4.53;;;;;;;4.17;98.99;99984.19;4135869;28;20443;-71
2021/12/19 01:48:02;;;;;;;8.52;5.32;;;;;;;4.27;98.79;99993.34;4136403;28;20049;-71
2021/12/19 01:50:05;;;;;;;7.85;4.40;;;;;;;4.27;98.91;99996.91;4134852;28;20096;-71
2021/12/19 01:52:06;;;;;;;9.30;4.68;;;;;;;4.24;99.04;99989.31;4137839;28;20476;-71
2021/12/19 01:54:06;;;;;;;8.20;4.80;;;;;;;4.33;97.65;99989.44;4136548;28;20072;-71
2021/12/19 01:56:07;;;;;;;9.77;4.65;;;;;;;4.34;97.45;99986.38;4136416;28;20753;-71
2021/12/19 01:58:09;;;;;;;9.07;4.55;;;;;;;4.37;97.43;99983.03;4136324;28;20044;-71
2021/12/19 02:00:19;;;;;;;7.47;4.68;;;;;;;4.32;98.08;99982.31;4136741;28;20387;-71
2021/12/19 02:02:21;;;;;;;7.68;4.68;;;;;;;4.31;98.17;99980.69;4136503;28;20186;-71
2021/12/19 02:04:22;;;;;;;9.90;5.15;;;;;;;4.25;98.28;99960.78;4137056;28;20596;-71
2021/12/19 02:06:22;;;;;;;6.20;4.40;;;;;;;4.18;99.35;99952.13;4136180;28;20068;-71
2021/12/19 02:08:22;;;;;;;8.13;4.50;;;;;;;4.15;99.13;99955.50;4134345;28;20551;-71
2021/12/19 02:10:29;;;;;;;7.50;4.55;;;;;;;4.18;99.10;99955.69;4136988;28;20886;-71
2021/12/19 02:12:30;;;;;;;8.70;4.32;;;;;;;4.19;98.30;99932.66;4136009;28;20046;-71
2021/12/19 02:14:30;;;;;;;8.23;4.05;;;;;;;4.25;98.20;99949.81;4136471;28;20232;-71
2021/12/19 02:16:31;;;;;;;13.05;5.32;;;;;;;4.25;97.68;99949.00;4135618;28;20065;-71
2021/12/19 02:18:31;;;;;;;7.43;4.55;;;;;;;4.15;98.16;99942.59;4135159;28;20050;-71
2021/12/19 02:20:37;;;;;;;8.82;4.75;;;;;;;4.17;98.39;99951.31;4136286;28;20126;-71
2021/12/19 02:22:38;;;;;;;8.55;4.50;;;;;;;4.24;98.03;99934.50;4136067;28;20268;-71
2021/12/19 02:24:39;;;;;;;7.70;4.60;;;;;;;4.22;97.64;99932.06;4136035;28;20498;-71
2021/12/19 02:26:40;;;;;;;12.38;4.63;;;;;;;4.22;97.18;99934.00;4134818;28;20042;-71
2021/12/19 02:28:41;;;;;;;11.30;5.80;;;;;;;4.15;97.65;99933.56;4135758;28;20042;-71
2021/12/19 02:30:41;;;;;;;10.68;5.15;;;;;;;4.18;96.27;99925.56;4134750;28;20049;-71
2021/12/19 02:32:42;;;;;;;9.00;4.70;;;;;;;4.20;96.64;99919.78;4135546;28;20403;-71
2021/12/19 02:34:46;;;;;;;11.70;5.85;;;;;;;4.23;96.68;99925.47;4136182;28;20506;-71
2021/12/19 02:37:03;;;;;;;11.07;5.10;;;;;;;4.24;96.04;99909.84;4135867;28;20041;-71
2021/12/19 02:48:11;;;;;;;9.43;5.47;;;;;;;4.12;96.93;99915.78;4134266;28;20053;-71
2021/12/19 02:50:24;;;;;;;8.23;4.90;;;;;;;4.16;96.73;99905.88;4133720;28;20044;-71
2021/12/19 02:52:25;;;;;;;11.35;5.57;;;;;;;4.14;97.18;99896.34;4135204;28;20583;-71
2021/12/19 02:54:25;;;;;;;9.27;5.32;;;;;;;4.13;97.46;99891.94;4136690;28;20152;-71
2021/12/19 02:56:26;;;;;;;12.48;5.35;;;;;;;4.16;96.90;99907.81;4135830;28;20046;-71
2021/12/19 02:58:28;;;;;;;13.70;7.20;;;;;;;4.19;96.39;99890.75;4135038;28;20038;-72
2021/12/19 03:00:29;;;;;;;12.73;5.35;;;;;;;4.21;96.54;99889.31;4135983;28;20132;-71
2021/12/19 03:02:29;;;;;;;12.20;5.85;;;;;;;4.26;95.99;99882.16;4136534;28;20080;-71
2021/12/19 03:04:29;;;;;;;12.98;6.82;;;;;;;4.25;96.08;99888.75;4135463;28;20050;-71
2021/12/19 03:06:30;;;;;;;9.57;5.22;;;;;;;4.26;95.81;99896.66;4136054;28;20171;-71
2021/12/19 03:08:30;;;;;;;13.13;6.13;;;;;;;4.27;95.43;99879.09;4135476;28;20046;-71
2021/12/19 03:13:07;;;;;;;9.65;5.35;;;;;;;4.30;94.97;99867.53;4136191;28;20123;-71
2021/12/19 03:19:46;;;;;;;10.35;5.88;;;;;;;4.14;96.30;99844.28;4135394;28;20514;-71
2021/12/19 03:21:47;;;;;;;12.07;6.25;;;;;;;4.17;95.90;99849.97;4136070;28;20049;-71
2021/12/19 03:23:48;;;;;;;9.45;5.90;;;;;;;4.11;95.99;99842.94;4134463;28;20050;-71
2021/12/19 03:25:48;;;;;;;9.52;5.60;;;;;;;4.15;96.24;99843.19;4136114;28;20557;-71
2021/12/19 03:27:49;;;;;;;12.05;6.57;;;;;;;4.13;96.30;99842.66;4136115;28;20049;-71
2021/12/19 03:29:49;;;;;;;11.90;6.15;;;;;;;4.21;95.61;99839.19;4138214;28;20042;-72
2021/12/19 03:31:49;;;;;;;12.23;6.22;;;;;;;4.26;95.45;99841.06;4138651;28;20077;-71
2021/12/19 03:33:50;;;;;;;14.75;6.32;;;;;;;4.25;95.78;99834.75;4138759;28;20049;-71
2021/12/19 03:35:50;;;;;;;8.63;5.13;;;;;;;4.26;95.45;99832.84;4139761;28;20066;-71
2021/12/19 03:37:52;;;;;;;10.15;6.03;;;;;;;4.18;95.00;99834.34;4137953;28;20049;-71
2021/12/19 03:40:09;;;;;;;12.27;6.93;;;;;;;4.21;95.56;99839.19;4139362;28;20053;-71
2021/12/19 03:42:09;;;;;;;13.40;6.22;;;;;;;4.17;95.74;99813.53;4137477;28;20077;-71
2021/12/19 03:44:09;;;;;;;12.82;6.18;;;;;;;4.17;96.20;99829.97;4139071;28;20454;-71
2021/12/19 03:46:10;;;;;;;13.70;7.15;;;;;;;4.17;95.59;99825.31;4137726;28;20657;-71
2021/12/19 03:48:12;;;;;;;12.95;6.70;;;;;;;4.10;95.85;99822.16;4137188;28;20037;-71
2021/12/19 03:50:16;;;;;;;;;;;;;;;4.21;94.89;99822.78;4137515;28;20057;-71
2021/12/19 03:52:16;;;;;;;9.57;5.13;;;;;;;4.25;93.45;99812.03;4137987;28;19924;-71
2021/12/19 03:54:17;;;;;;;10.13;5.82;;;;;;;4.18;94.39;99815.97;4138873;28;20101;-71
2021/12/19 03:56:17;;;;;;;11.43;6.22;;;;;;;4.18;93.54;99815.97;4138574;28;20038;-71
2021/12/19 03:58:19;;;;;;;15.93;6.43;;;;;;;4.17;93.37;99817.09;4137359;28;20068;-71
2021/12/19 04:00:24;;;;;;;12.33;6.60;;;;;;;4.12;94.29;99805.41;4137908;28;20379;-71
2021/12/19 04:02:27;;;;;;;13.35;6.93;;;;;;;4.07;94.94;99809.06;4137033;28;20268;-71
2021/12/19 04:04:30;;;;;;;13.85;6.88;;;;;;;4.04;95.57;99812.41;4137884;28;20038;-71
2021/12/19 04:06:30;;;;;;;;;;;;;;;4.04;95.46;99806.13;4137327;28;20042;-71
2021/12/19 04:08:31;;;;;;;14.68;6.68;;;;;;;4.05;94.22;99802.25;4137337;28;19971;-71
2021/12/19 04:10:31;;;;;;;10.48;6.32;;;;;;;4.06;94.70;99798.44;4137788;28;20038;-71
2021/12/19 04:12:31;;;;;;;11.90;6.57;;;;;;;4.06;94.78;99791.03;4138205;28;20503;-71
2021/12/19 04:14:32;;;;;;;13.13;6.45;;;;;;;4.05;94.80;99785.81;4138013;28;20049;-71
2021/12/19 04:16:33;;;;;;;12.45;6.82;;;;;;;3.99;94.64;99787.06;4137462;28;20673;-71
2021/12/19 04:18:33;;;;;;;13.50;7.25;;;;;;;3.99;94.94;99787.88;4137463;28;20034;-71
2021/12/19 04:20:33;;;;;;;11.82;6.63;;;;;;;3.98;94.50;99774.47;4138276;28;20474;-71
2021/12/19 04:22:34;;;;;;;12.88;6.00;;;;;;;4.03;95.01;99794.34;4138257;28;20108;-71
2021/12/19 04:24:34;;;;;;;14.50;6.70;;;;;;;4.08;93.91;99785.25;4137911;28;20065;-71
2021/12/19 04:26:34;;;;;;;14.27;6.68;;;;;;;4.05;93.96;99792.13;4137143;28;20042;-71
2021/12/19 04:28:35;;;;;;;12.88;6.57;;;;;;;4.04;94.41;99778.72;4138153;28;20061;-71
2021/12/19 04:30:36;;;;;;;11.25;6.15;;;;;;;3.99;95.44;99778.84;4137571;28;20046;-71
2021/12/19 04:32:42;;;;;;;12.40;6.50;;;;;;;4.00;95.37;99772.25;4137977;28;20519;-72
2021/12/19 04:34:42;;;;;;;12.73;6.15;;;;;;;4.07;95.00;99778.94;4138274;28;20056;-71
2021/12/19 04:36:46;;;;;;;14.55;6.65;;;;;;;4.05;95.18;99774.88;4136566;28;20072;-71
2021/12/19 04:41:13;;;;;;;11.32;6.03;;;;;;;4.05;94.42;99780.34;4137721;28;20058;-71
2021/12/19 04:58:54;;;;;;;12.65;6.88;;;;;;;4.04;93.59;99771.31;4137588;28;20422;-71
2021/12/19 05:03:02;;;;;;;13.32;6.13;;;;;;;4.07;95.50;99742.53;4138391;28;20050;-71
2021/12/19 05:14:21;;;;;;;13.35;7.85;;;;;;;3.88;94.33;99696.88;4137358;28;20718;-71
2021/12/19 05:16:22;;;;;;;11.57;6.82;;;;;;;3.86;95.09;99712.78;4137153;28;20499;-71
2021/12/19 05:18:26;;;;;;;13.77;7.25;;;;;;;3.79;95.23;99693.22;4135958;28;20074;-71
2021/12/19 05:20:29;;;;;;;12.77;6.53;;;;;;;3.87;94.96;99703.47;4136900;28;20125;-71
2021/12/19 05:22:33;;;;;;;14.55;6.95;;;;;;;3.83;95.70;99707.13;4137639;28;20490;-71
2021/12/19 05:26:42;;;;;;;14.55;7.40;;;;;;;3.94;94.14;99703.88;4137413;28;20358;-71
2021/12/19 05:28:42;;;;;;;16.23;8.18;;;;;;;3.84;94.70;99697.78;4136562;28;20042;-71
2021/12/19 05:30:42;;;;;;;11.75;6.80;;;;;;;3.89;94.86;99706.72;4136581;28;20056;-71
2021/12/19 05:32:45;;;;;;;13.15;7.15;;;;;;;3.91;94.31;99715.44;4137230;28;20044;-71
2021/12/19 05:34:45;;;;;;;15.65;7.60;;;;;;;3.86;94.44;99714.72;4137727;28;20042;-71
2021/12/19 05:46:00;;;;;;;15.15;7.35;;;;;;;3.88;94.87;99727.00;4136724;28;20056;-71
2021/12/19 05:48:01;;;;;;;17.30;8.50;;;;;;;3.83;94.79;99721.63;4136761;28;20136;-71
2021/12/19 05:50:01;;;;;;;12.13;7.05;;;;;;;3.86;94.50;99707.31;4135979;28;20387;-71
2021/12/19 05:52:02;;;;;;;13.10;6.82;;;;;;;3.83;94.97;99709.88;4137685;28;20261;-71
2021/12/19 05:54:03;;;;;;;17.08;7.22;;;;;;;3.77;94.62;99702.88;4135052;28;20044;-71
2021/12/19 05:56:03;;;;;;;13.35;6.93;;;;;;;3.79;95.17;99703.38;4136144;28;20513;-72
2021/12/19 05:58:04;;;;;;;14.27;7.40;;;;;;;3.84;94.92;99708.75;4136082;28;20034;-71
2021/12/19 06:00:08;;;;;;;12.27;7.13;;;;;;;3.88;94.57;99715.22;4137273;28;20614;-71
2021/12/19 06:02:09;;;;;;;13.77;7.35;;;;;;;3.83;94.53;99707.94;4136042;28;20069;-71
2021/12/19 06:04:10;;;;;;;13.15;6.93;;;;;;;3.80;94.73;99699.50;4136120;28;20745;-71
2021/12/19 06:06:10;;;;;;;15.48;7.65;;;;;;;3.79;95.23;99695.97;4137145;28;20808;-71
2021/12/19 06:08:10;;;;;;;13.65;7.78;;;;;;;3.84;94.40;99704.09;4135534;28;20034;-71
2021/12/19 06:10:12;;;;;;;13.40;7.50;;;;;;;3.87;94.28;99703.47;4136100;28;20087;-71
2021/12/19 06:12:12;;;;;;;12.30;7.10;;;;;;;3.89;94.56;99704.00;4136891;28;20192;-71
2021/12/19 06:14:12;;;;;;;16.02;8.15;;;;;;;3.82;95.26;99697.28;4135834;28;20029;-71
2021/12/19 06:16:13;;;;;;;14.07;7.22;;;;;;;3.83;94.85;99696.19;4136542;28;20034;-71
2021/12/19 06:18:13;;;;;;;15.70;7.97;;;;;;;3.84;95.13;99695.88;4135081;28;20034;-71
2021/12/19 06:20:13;;;;;;;14.40;7.65;;;;;;;3.83;95.04;99707.94;4135400;28;20038;-71
2021/12/19 06:22:14;;;;;;;14.43;7.88;;;;;;;3.80;95.41;99702.25;4136560;28;20080;-71
2021/12/19 06:24:14;;;;;;;13.63;7.85;;;;;;;3.83;95.92;99713.41;4136251;28;20049;-71
2021/12/19 06:26:14;;;;;;;16.02;7.85;;;;;;;3.80;95.68;99700.31;4136584;28;20026;-71
2021/12/19 06:28:16;;;;;;;17.33;7.68;;;;;;;3.81;96.09;99693.75;4136249;28;20029;-71
2021/12/19 06:30:17;;;;;;;14.88;8.65;;;;;;;3.87;95.42;99702.66;4136343;28;20034;-71
2021/12/19 06:32:18;;;;;;;13.73;7.85;;;;;;;3.91;94.89;99696.28;4134905;28;20045;-71
2021/12/19 06:34:18;;;;;;;17.17;8.55;;;;;;;3.87;95.02;99686.22;4135509;28;20351;-71
2021/12/19 06:36:19;;;;;;;15.43;8.65;;;;;;;3.87;95.35;99694.44;4135848;28;20490;-71
2021/12/19 06:38:19;;;;;;;14.85;7.90;;;;;;;3.85;95.62;99699.41;4135308;28;20065;-71
2021/12/19 06:40:21;;;;;;;17.35;7.85;;;;;;;3.86;95.54;99685.41;4136785;28;20459;-71
2021/12/19 06:42:21;;;;;;;12.97;7.73;;;;;;;3.92;95.45;99689.69;4136189;28;20458;-70
2021/12/19 06:44:22;;;;;;;14.43;8.18;;;;;;;3.98;94.74;99693.13;4136292;28;20447;-71
2021/12/19 06:46:22;;;;;;;14.68;8.45;;;;;;;3.90;94.85;99688.38;4136009;28;20308;-71
2021/12/19 06:48:24;;;;;;;17.30;8.27;;;;;;;3.91;95.64;99698.22;4133994;28;20687;-71
2021/12/19 06:50:25;;;;;;;17.17;8.05;;;;;;;3.89;94.86;99686.75;4136152;28;20042;-71
2021/12/19 06:52:26;;;;;;;13.00;7.68;;;;;;;3.89;94.97;99684.81;4135942;28;20479;-71
2021/12/19 06:54:26;;;;;;;15.05;8.88;;;;;;;3.88;95.23;99685.91;4136561;28;20046;-71
2021/12/19 06:56:26;;;;;;;12.70;7.15;;;;;;;3.91;95.20;99690.00;4135374;28;20034;-71
2021/12/19 06:58:27;;;;;;;13.73;7.90;;;;;;;3.93;95.12;99683.09;4135919;28;20048;-71
2021/12/19 07:00:27;;;;;;;16.13;8.43;;;;;;;3.91;94.82;99687.25;4135798;28;20410;-71
2021/12/19 07:02:28;;;;;;;13.65;8.57;;;;;;;3.85;95.86;99692.00;4133745;28;20550;-71
2021/12/19 07:04:28;;;;;;;15.25;8.85;;;;;;;3.84;95.86;99687.66;4135758;28;20487;-71
2021/12/19 07:06:28;;;;;;;18.50;9.23;;;;;;;3.88;96.07;99674.97;4135966;28;20038;-71
2021/12/19 07:08:29;;;;;;;19.52;8.50;;;;;;;3.89;95.46;99657.44;4136588;28;20260;-71
2021/12/19 07:10:30;;;;;;;17.75;8.35;;;;;;;4.00;94.79;99649.00;4133062;28;20574;-71
2021/12/19 07:12:30;;;;;;;16.15;8.82;;;;;;;3.87;95.64;99648.72;4136231;28;20034;-71
2021/12/19 07:14:31;;;;;;;13.70;7.78;;;;;;;3.89;95.30;99641.03;4136003;28;20097;-71
2021/12/19 07:16:31;;;;;;;16.10;8.70;;;;;;;3.84;96.45;99649.31;4136456;28;20045;-71
2021/12/19 07:18:32;;;;;;;16.50;9.50;;;;;;;3.79;96.69;99648.59;4135445;28;20456;-70
2021/12/19 07:20:33;;;;;;;17.40;9.60;;;;;;;3.81;96.53;99652.69;4135955;28;20038;-71
2021/12/19 07:22:33;;;;;;;15.05;8.23;;;;;;;3.84;96.21;99659.47;4135645;28;20381;-71
2021/12/19 07:24:33;;;;;;;16.67;9.15;;;;;;;3.84;95.88;99652.06;4135225;28;20053;-71
2021/12/19 07:26:34;;;;;;;15.40;8.52;;;;;;;3.80;96.53;99662.00;4134328;28;20050;-71
2021/12/19 07:28:34;;;;;;;17.55;9.07;;;;;;;3.87;95.91;99659.66;4135168;28;20096;-71
2021/12/19 07:30:36;;;;;;;16.65;8.13;;;;;;;3.90;95.72;99666.47;4135393;28;20141;-71
2021/12/19 07:32:38;;;;;;;13.80;8.60;;;;;;;3.91;95.54;99668.09;4133625;28;20046;-71
2021/12/19 07:34:39;;;;;;;16.73;8.85;;;;;;;3.93;95.64;99663.91;4132137;28;20046;-71
2021/12/19 07:36:45;;;;;;;14.73;8.82;;;;;;;3.90;95.36;99656.31;4131358;28;20690;-71
2021/12/19 07:39:03;;;;;;;17.92;9.15;;;;;;;3.89;95.97;99657.44;4133133;28;20296;-71
2021/12/19 07:41:04;;;;;;;16.08;8.55;;;;;;;3.90;95.86;99655.53;4133803;28;20549;-71
2021/12/19 07:43:08;;;;;;;14.15;8.07;;;;;;;3.89;95.84;99641.03;4134993;28;20120;-71
2021/12/19 07:45:10;;;;;;;14.27;8.98;;;;;;;3.94;95.78;99653.78;4136078;28;20078;-71
2021/12/19 07:47:12;;;;;;;;;;;;;;;3.91;95.33;99641.53;4135384;28;20081;-71
2021/12/19 07:49:12;;;;;;;17.58;8.93;;;;;;;3.92;95.40;99634.91;4135050;28;20382;-71
2021/12/19 07:51:13;;;;;;;15.73;8.32;;;;;;;3.91;94.84;99647.00;4134157;28;20081;-71
2021/12/19 07:53:13;;;;;;;16.55;9.30;;;;;;;3.90;95.19;99639.91;4133782;28;20558;-71
2021/12/19 07:55:14;;;;;;;15.65;8.77;;;;;;;3.91;95.40;99636.03;4134091;28;20042;-71
2021/12/19 07:57:14;;;;;;;15.20;8.35;;;;;;;3.92;95.49;99645.88;4134572;28;20403;-71
2021/12/19 07:59:14;;;;;;;17.05;8.52;;;;;;;3.95;95.12;99636.22;4134779;28;20288;-71
2021/12/19 08:01:15;;;;;;;14.02;7.78;;;;;;;3.94;94.95;99632.69;4134070;28;20448;-71
2021/12/19 08:03:15;;;;;;;14.65;8.32;;;;;;;3.96;94.48;99629.63;4134034;28;20056;-71
2021/12/19 08:05:17;;;;;;;16.33;9.07;;;;;;;3.95;95.36;99634.31;4133243;28;20053;-71
2021/12/19 08:07:22;;;;;;;16.17;8.65;;;;;;;3.98;95.05;99637.56;4134739;28;20271;-71
2021/12/19 08:09:35;;;;;;;14.77;7.85;;;;;;;3.98;95.18;99624.69;4134639;28;20046;-71
2021/12/19 08:11:42;;;;;;;;;;;;;;;3.97;94.78;99630.44;4136298;28;20466;-71
2021/12/19 08:13:43;;;;;;;16.02;7.95;;;;;;;4.00;94.29;99636.13;4136210;28;19956;-71
2021/12/19 08:15:43;;;;;;;14.30;7.65;;;;;;;4.07;93.55;99633.78;4136829;28;20049;-71
2021/12/19 08:17:44;;;;;;;14.82;8.07;;;;;;;4.07;93.15;99633.00;4137004;28;20306;-71
2021/12/19 08:19:44;;;;;;;17.20;7.55;;;;;;;4.08;93.89;99635.41;4136935;28;20808;-71
2021/12/19 08:21:44;;;;;;;18.00;9.98;;;;;;;4.05;93.95;99613.28;4135717;28;20502;-71
2021/12/19 08:23:45;;;;;;;13.52;8.27;;;;;;;4.03;94.28;99613.59;4136936;28;20502;-71
2021/12/19 08:25:45;;;;;;;18.33;9.85;;;;;;;4.10;93.50;99622.22;4137807;28;20161;-71
2021/12/19 08:27:46;;;;;;;16.30;8.77;;;;;;;4.07;94.86;99611.06;4136009;28;20499;-71
2021/12/19 08:29:46;;;;;;;16.30;9.02;;;;;;;4.11;93.86;99623.03;4135403;28;20045;-71
2021/12/19 08:31:46;;;;;;;15.35;8.10;;;;;;;4.06;94.59;99615.75;4137153;28;20357;-72
2021/12/19 08:33:48;;;;;;;16.83;8.48;;;;;;;4.10;94.73;99618.66;4135952;28;20426;-71
2021/12/19 08:35:48;;;;;;;18.63;8.02;;;;;;;4.14;94.32;99627.91;4137187;28;20050;-71
2021/12/19 08:37:48;;;;;;;15.68;7.57;;;;;;;4.16;93.11;99628.41;4136779;28;20072;-71
2021/12/19 08:39:49;;;;;;;15.40;7.97;;;;;;;4.17;92.91;99624.53;4136967;28;20401;-71
2021/12/19 08:41:49;;;;;;;14.45;7.57;;;;;;;4.17;92.15;99628.09;4137634;28;20119;-71
2021/12/19 08:43:50;;;;;;;12.77;7.03;;;;;;;4.26;91.18;99624.63;4134473;28;20038;-71
2021/12/19 08:45:51;;;;;;;14.27;7.00;;;;;;;4.22;91.84;99627.19;4135840;28;20531;-71
2021/12/19 08:47:52;;;;;;;10.70;5.95;;;;;;;4.25;91.68;99642.19;4135424;28;20050;-71
2021/12/19 08:49:53;;;;;;;18.73;7.57;;;;;;;4.23;91.37;99624.13;4137182;28;20053;-71
2021/12/19 08:51:54;;;;;;;12.95;6.22;;;;;;;4.25;91.70;99618.34;4137084;28;20491;-71
2021/12/19 08:53:55;;;;;;;14.50;8.82;;;;;;;4.23;92.32;99621.38;4137386;28;20049;-71
2021/12/19 08:55:55;;;;;;;14.77;8.15;;;;;;;4.25;91.96;99618.34;4136997;28;20141;-71
2021/12/19 08:57:57;;;;;;;12.57;7.95;;;;;;;4.23;92.37;99620.56;4137213;28;20046;-71
2021/12/19 08:59:58;;;;;;;13.43;8.07;;;;;;;4.20;92.74;99618.44;4137257;28;20049;-71
2021/12/19 09:02:01;;;;;;;15.88;8.60;;;;;;;4.21;93.15;99625.53;4138265;28;20049;-71
2021/12/19 09:04:02;;;;;;;11.93;6.57;;;;;;;4.24;92.21;99613.97;4152328;28;20049;-71
2021/12/19 09:06:04;;;;;;;18.55;10.10;;;;;;;4.23;91.78;99613.16;4153449;28;20041;-71
2021/12/19 09:08:04;;;;;;;17.35;9.20;;;;;;;4.29;91.77;99619.31;4153467;28;20025;-71
2021/12/19 09:10:06;;;;;;;15.07;7.78;;;;;;;4.34;90.44;99616.47;4153225;28;20129;-71
2021/12/19 09:12:07;;;;;;;14.30;6.93;;;;;;;4.32;90.52;99607.75;4153426;28;20065;-71
2021/12/19 09:14:08;;;;;;;11.55;5.75;;;;;;;4.39;89.36;99605.41;4152386;28;20037;-71
2021/12/19 09:16:08;;;;;;;10.35;6.03;;;;;;;4.28;90.76;99608.69;4153778;28;20038;-71
2021/12/19 09:18:09;;;;;;;10.75;6.07;;;;;;;4.26;90.35;99611.72;4152344;28;20048;-71
2021/12/19 09:20:10;;;;;;;14.63;6.97;;;;;;;4.26;90.36;99621.88;4154260;28;20174;-71
2021/12/19 09:22:11;;;;;;;13.10;7.10;;;;;;;4.27;89.58;99623.50;4154264;28;20040;-71
2021/12/19 09:24:12;;;;;;;8.73;5.13;;;;;;;4.19;89.43;99609.41;4153110;28;20032;-71
2021/12/19 09:26:13;;;;;;;8.95;5.28;;;;;;;4.19;90.04;99609.41;4152538;28;20033;-71
2021/12/19 09:28:14;;;;;;;8.80;5.68;;;;;;;4.20;90.72;99597.31;4153134;28;20029;-71
2021/12/19 09:30:14;;;;;;;8.15;5.07;;;;;;;4.34;89.29;99600.03;4153459;28;20026;-71
2021/12/19 09:32:15;;;;;;;9.63;5.65;;;;;;;4.31;89.49;99591.63;4153730;28;20121;-71
2021/12/19 09:34:15;;;;;;;11.45;6.40;;;;;;;4.27;90.24;99613.34;4152089;28;20087;-71
2021/12/19 09:36:16;;;;;;;10.18;5.85;;;;;;;4.34;88.66;99604.72;4150530;28;20368;-71
2021/12/19 09:38:16;;;;;;;11.43;6.25;;;;;;;4.32;89.69;99602.28;4148805;28;20407;-71
2021/12/19 09:40:21;;;;;;;12.98;8.13;;;;;;;4.33;88.69;99605.84;4152012;28;20062;-71
2021/12/19 09:42:32;;;;;;;9.98;5.78;;;;;;;4.30;88.89;99601.75;4151655;28;20050;-71
2021/12/19 09:44:34;;;;;;;10.07;5.03;;;;;;;4.27;88.47;99593.34;4152186;28;20430;-71
2021/12/19 09:46:37;;;;;;;6.57;4.13;;;;;;;4.28;87.64;99600.47;4151463;28;20049;-71
2021/12/19 09:48:39;;;;;;;7.55;3.95;;;;;;;4.25;87.38;99596.41;4151989;28;20049;-71
2021/12/19 09:50:40;;;;;;;8.88;3.80;;;;;;;4.28;87.40;99597.72;4150498;28;20446;-71
2021/12/19 09:52:40;;;;;;;7.85;3.08;;;;;;;4.32;86.59;99606.94;4149082;28;20042;-71
2021/12/19 09:54:41;;;;;;;5.13;2.97;;;;;;;4.19;87.15;99584.75;4146378;28;20049;-71
2021/12/19 09:56:50;;;;;;;5.55;2.75;;;;;;;4.25;86.15;99577.25;4144113;28;20486;-71
2021/12/19 09:58:51;;;;;;;3.75;2.70;;;;;;;4.17;86.82;99577.97;4148907;28;20156;-71
2021/12/19 10:00:53;;;;;;;4.63;2.72;;;;;;;4.19;87.05;99590.22;4150338;28;20244;-71
2021/12/19 10:02:53;;;;;;;5.07;2.50;;;;;;;4.20;87.31;99583.63;4152111;28;20417;-71
2021/12/19 10:04:54;;;;;;;3.75;2.35;;;;;;;4.20;87.21;99567.19;4152092;28;20045;-71
2021/12/19 10:07:13;;;;;;;4.18;2.53;;;;;;;4.24;87.18;99567.41;4152505;28;20044;-71
2021/12/19 10:09:18;;;;;;;4.07;2.72;;;;;;;4.27;86.92;99585.94;4153253;28;20438;-71
2021/12/19 10:12:12;;;;;;;3.25;2.30;;;;;;;4.23;86.62;99574.00;4152291;28;20546;-71
2021/12/19 10:14:22;;;;;;;3.75;2.42;;;;;;;4.22;87.95;99561.44;4136925;28;20056;-71
2021/12/19 10:16:30;;;;;;;4.55;2.30;;;;;;;4.27;87.78;99569.50;4135296;28;20046;-71
2021/12/19 10:18:30;;;;;;;15.13;7.28;;;;;;;4.29;87.36;99575.47;4134895;28;20144;-71
2021/12/19 10:20:47;;;;;;;5.28;2.88;;;;;;;4.27;88.32;99566.78;4136726;28;20085;-71
2021/12/19 10:22:48;;;;;;;3.42;1.90;;;;;;;4.24;87.42;99561.94;4136668;28;20053;-71
2021/12/19 10:24:48;;;;;;;3.20;2.10;;;;;;;4.26;87.42;99556.13;4137128;28;20046;-71
2021/12/19 10:26:49;;;;;;;5.30;3.70;;;;;;;4.31;87.23;99550.53;4136186;28;20341;-71
2021/12/19 10:28:55;;;;;;;3.67;2.20;;;;;;;4.29;87.14;99555.50;4135784;28;20415;-71
2021/12/19 10:31:01;;;;;;;3.42;2.30;;;;;;;4.22;87.02;99556.75;4135691;28;20167;-71
2021/12/19 10:33:03;;;;;;;3.92;2.38;;;;;;;4.24;87.59;99548.22;4135709;28;20865;-72
2021/12/19 10:35:15;;;;;;;3.22;2.10;;;;;;;4.31;87.67;99539.59;4136115;28;20045;-71
2021/12/19 10:37:34;;;;;;;2.75;2.10;;;;;;;4.27;88.06;99533.09;4132111;28;20546;-71
2021/12/19 10:39:39;;;;;;;3.15;2.28;;;;;;;4.34;87.78;99534.28;4135424;28;20073;-71
2021/12/19 10:41:42;;;;;;;4.15;2.63;;;;;;;4.26;86.81;99529.53;4135780;28;20045;-71